createdAt,value
2023-01-09T00:02:27.539Z,1.20
2023-01-09T00:07:31.076Z,1.02
2023-01-09T00:12:36.207Z,0.80
2023-01-09T00:17:40.115Z,0.68
2023-01-09T00:22:43.940Z,0.80
2023-01-09T00:27:48.823Z,0.70
2023-01-09T00:32:52.469Z,0.80
2023-01-09T00:37:56.236Z,0.47
2023-01-09T00:43:01.929Z,0.70
2023-01-09T00:48:11.144Z,0.60
2023-01-09T00:53:18.414Z,0.60
2023-01-09T00:58:23.312Z,0.40
2023-01-09T01:03:26.870Z,0.65
2023-01-09T01:08:30.376Z,0.60
2023-01-09T01:13:35.393Z,0.60
2023-01-09T01:18:39.276Z,0.50
2023-01-09T01:23:42.984Z,0.90
2023-01-09T01:28:47.783Z,0.90
2023-01-09T01:33:51.285Z,1.10
2023-01-09T01:38:54.841Z,1.20
2023-01-09T01:44:01.758Z,1.40
2023-01-09T01:49:09.236Z,1.30
2023-01-09T01:54:19.686Z,1.10
2023-01-09T01:59:27.442Z,1.13
2023-01-09T02:04:34.161Z,1.20
2023-01-09T02:09:39.794Z,1.27
2023-01-09T02:14:46.631Z,1.30
2023-01-09T02:20:33.440Z,1.05
2023-01-09T02:26:01.227Z,1.27
2023-01-09T02:31:12.033Z,1.08
2023-01-09T02:36:25.235Z,1.23
2023-01-09T02:41:37.460Z,1.20
2023-01-09T02:46:42.300Z,1.17
2023-01-09T02:51:53.058Z,1.42
2023-01-09T02:57:16.275Z,1.00
2023-01-09T03:02:36.423Z,1.33
2023-01-09T03:07:48.246Z,1.10
2023-01-09T03:12:54.545Z,1.58
2023-01-09T03:18:00.881Z,1.42
2023-01-09T03:23:06.893Z,1.63
2023-01-09T03:28:19.492Z,1.63
2023-01-09T03:33:24.492Z,1.45
2023-01-09T03:38:27.968Z,1.90
2023-01-09T03:43:31.479Z,1.20
2023-01-09T03:48:36.594Z,1.73
2023-01-09T03:53:40.232Z,1.33
2023-01-09T03:58:43.725Z,1.30
2023-01-09T04:03:48.605Z,1.50
2023-01-09T04:08:52.133Z,1.48
2023-01-09T04:13:55.638Z,1.50
2023-01-09T04:19:01.831Z,1.77
2023-01-09T04:24:06.084Z,1.42
2023-01-09T04:29:09.585Z,1.98
2023-01-09T04:34:14.447Z,1.48
2023-01-09T04:39:18.000Z,1.55
2023-01-09T04:44:23.095Z,2.25
2023-01-09T04:49:28.067Z,2.92
2023-01-09T04:54:31.612Z,3.58
2023-01-09T04:59:35.158Z,2.28
2023-01-09T05:04:40.163Z,3.00
2023-01-09T05:09:44.684Z,2.00
2023-01-09T05:14:48.325Z,2.63
2023-01-09T05:19:53.215Z,1.90
2023-01-09T05:24:57.922Z,1.83
2023-01-09T05:30:02.575Z,2.00
2023-01-09T05:35:08.622Z,1.90
2023-01-09T05:40:13.189Z,2.05
2023-01-09T05:45:16.693Z,1.50
2023-01-09T05:50:21.591Z,2.15
2023-01-09T05:55:25.081Z,1.65
2023-01-09T06:00:28.714Z,1.40
2023-01-09T06:05:34.009Z,1.75
2023-01-09T06:10:37.607Z,1.70
2023-01-09T06:15:41.196Z,1.42
2023-01-09T06:20:46.918Z,1.48
2023-01-09T06:25:50.416Z,1.60
2023-01-09T06:30:54.176Z,1.48
2023-01-09T06:35:59.761Z,1.40
2023-01-09T06:41:03.342Z,1.30
2023-01-09T06:46:07.341Z,1.70
2023-01-09T06:51:12.268Z,2.00
2023-01-09T06:56:15.776Z,1.38
2023-01-09T07:01:19.368Z,1.60
2023-01-09T07:06:24.571Z,1.75
2023-01-09T07:11:28.065Z,1.83
2023-01-09T07:16:31.542Z,1.98
2023-01-09T07:21:36.526Z,1.52
2023-01-09T07:26:41.041Z,1.48
2023-01-09T07:31:45.719Z,1.60
2023-01-09T07:36:50.878Z,1.98
2023-01-09T07:41:54.567Z,1.65
2023-01-09T07:46:58.402Z,1.65
2023-01-09T07:52:03.558Z,1.30
2023-01-09T07:57:07.375Z,1.85
2023-01-09T08:02:11.133Z,2.53
2023-01-09T08:07:16.245Z,2.25
2023-01-09T08:12:19.837Z,2.70
2023-01-09T08:17:25.188Z,2.75
2023-01-09T08:22:31.609Z,2.72
2023-01-09T08:27:35.533Z,2.75
2023-01-09T08:32:40.164Z,2.45
2023-01-09T08:37:46.333Z,2.70
2023-01-09T08:43:08.656Z,3.50
2023-01-09T08:48:12.850Z,3.17
2023-01-09T08:53:17.881Z,2.90
2023-01-09T08:58:21.819Z,3.53
2023-01-09T09:03:25.647Z,2.72
2023-01-09T09:08:30.906Z,3.30
2023-01-09T09:13:34.746Z,3.20
2023-01-09T09:18:38.515Z,3.53
2023-01-09T09:23:44.527Z,3.72
2023-01-09T09:28:48.216Z,5.75
2023-01-09T09:33:51.889Z,3.35
2023-01-09T09:38:57.564Z,2.55
2023-01-09T09:44:35.464Z,2.90
2023-01-09T09:49:50.289Z,2.90
2023-01-09T09:54:58.563Z,2.58
2023-01-09T10:00:03.894Z,2.50
2023-01-09T10:05:22.371Z,2.80
2023-01-09T10:10:34.351Z,3.13
2023-01-09T10:15:42.379Z,4.10
2023-01-09T10:20:52.993Z,4.75
2023-01-09T10:26:03.153Z,3.67
2023-01-09T10:31:16.580Z,5.20
2023-01-09T10:36:37.942Z,4.25
2023-01-09T10:41:52.102Z,4.15
2023-01-09T10:46:57.944Z,3.33
2023-01-09T10:52:15.443Z,4.18
2023-01-09T10:57:35.262Z,4.22
2023-01-09T11:02:38.899Z,4.97
2023-01-09T11:07:45.938Z,4.57
2023-01-09T11:12:51.208Z,3.67
2023-01-09T11:17:54.870Z,3.55
2023-01-09T11:22:59.996Z,3.53
2023-01-09T11:28:08.721Z,3.88
2023-01-09T11:33:20.118Z,3.63
2023-01-09T11:38:23.864Z,4.63
2023-01-09T11:43:37.651Z,3.47
2023-01-09T11:48:57.000Z,2.88
2023-01-09T11:54:14.535Z,3.42
2023-01-09T11:59:21.801Z,2.50
2023-01-09T12:04:29.855Z,2.10
2023-01-09T12:09:45.528Z,2.05
2023-01-09T12:15:04.609Z,2.30
2023-01-09T12:20:32.243Z,2.40
2023-01-09T12:25:45.918Z,2.35
2023-01-09T12:31:04.157Z,2.85
2023-01-09T12:36:15.653Z,2.78
2023-01-09T12:41:37.712Z,3.00
2023-01-09T12:46:51.507Z,2.90
2023-01-09T12:52:01.443Z,2.70
2023-01-09T12:57:12.927Z,2.78
2023-01-09T13:02:24.786Z,2.97
2023-01-09T13:07:34.311Z,5.05
2023-01-09T13:12:41.688Z,2.25
2023-01-09T13:17:52.791Z,2.30
2023-01-09T13:22:57.491Z,1.98
2023-01-09T13:28:07.022Z,2.30
2023-01-09T13:33:19.991Z,2.28
2023-01-09T13:38:26.095Z,2.65
2023-01-09T13:43:57.210Z,3.17
2023-01-09T13:49:03.951Z,3.42
2023-01-09T13:54:10.643Z,2.78
2023-01-09T13:59:28.787Z,2.65
2023-01-09T14:04:44.792Z,1.85
2023-01-09T14:09:53.922Z,1.80
2023-01-09T14:15:02.390Z,1.50
2023-01-09T14:20:24.807Z,0.75
2023-01-09T14:25:31.971Z,1.08
2023-01-09T14:30:38.100Z,1.30
2023-01-09T14:35:48.868Z,1.30
2023-01-09T14:40:57.282Z,1.38
2023-01-09T14:46:09.723Z,1.38
2023-01-09T14:51:18.221Z,1.67
2023-01-09T14:56:30.597Z,1.70
2023-01-09T15:01:37.280Z,1.48
2023-01-09T15:06:44.650Z,1.40
2023-01-09T15:11:48.733Z,2.42
2023-01-09T15:16:52.685Z,1.77
2023-01-09T15:22:02.967Z,1.52
2023-01-09T15:27:15.807Z,1.80
2023-01-09T15:32:24.709Z,2.22
2023-01-09T15:37:34.512Z,1.58
2023-01-09T15:42:59.270Z,2.58
2023-01-09T15:48:22.025Z,2.28
2023-01-09T15:53:28.711Z,1.98
2023-01-09T15:58:36.212Z,1.90
2023-01-09T16:03:40.179Z,1.92
2023-01-09T16:08:52.393Z,2.17
2023-01-09T16:13:58.439Z,3.35
2023-01-09T16:19:02.406Z,2.58
2023-01-09T16:29:38.500Z,4.47
2023-01-09T16:34:44.482Z,3.83
2023-01-09T16:40:27.118Z,3.45
2023-01-09T16:45:34.747Z,4.15
2023-01-09T16:50:38.338Z,4.20
2023-01-09T16:55:42.276Z,3.85
2023-01-09T17:00:48.233Z,4.45
2023-01-09T17:05:54.438Z,3.88
2023-01-09T17:10:59.045Z,3.88
2023-01-09T17:16:05.942Z,4.78
2023-01-09T17:21:16.825Z,3.13
2023-01-09T17:26:40.368Z,3.67
2023-01-09T17:31:45.539Z,3.25
2023-01-09T17:36:49.528Z,3.60
2023-01-09T17:41:53.927Z,3.50
2023-01-09T17:46:59.237Z,3.92
2023-01-09T17:52:03.110Z,4.13
2023-01-09T17:57:07.801Z,4.10
2023-01-09T18:02:18.217Z,3.90
2023-01-09T18:07:22.165Z,2.50
2023-01-09T18:12:25.893Z,3.33
2023-01-09T18:17:30.962Z,3.30
2023-01-09T18:22:34.965Z,2.60
2023-01-09T18:27:39.312Z,2.67
2023-01-09T18:32:44.342Z,3.03
2023-01-09T18:37:48.350Z,3.10
2023-01-09T18:42:52.683Z,3.00
2023-01-09T18:47:58.012Z,3.40
2023-01-09T18:53:01.699Z,2.88
2023-01-09T18:58:06.292Z,2.80
2023-01-09T19:03:15.328Z,2.92
2023-01-09T19:08:21.497Z,2.45
2023-01-09T19:13:25.945Z,3.10
2023-01-09T19:18:34.083Z,2.70
2023-01-09T19:23:37.627Z,2.80
2023-01-09T19:28:45.150Z,3.13
2023-01-09T19:33:50.274Z,3.03
2023-01-09T19:38:57.220Z,2.70
2023-01-09T19:44:01.307Z,2.70
2023-01-09T19:49:06.547Z,2.67
2023-01-09T19:54:11.620Z,3.22
2023-01-09T19:59:16.067Z,2.30
2023-01-09T20:04:21.155Z,2.75
2023-01-09T20:09:27.792Z,2.42
2023-01-09T20:14:31.458Z,1.85
2023-01-09T20:19:36.522Z,2.13
2023-01-09T20:24:40.371Z,2.63
2023-01-09T20:29:44.661Z,4.30
2023-01-09T20:34:49.852Z,3.53
2023-01-09T20:39:53.553Z,3.20
2023-01-09T20:44:57.337Z,2.92
2023-01-09T20:50:02.374Z,3.08
2023-01-09T20:55:06.616Z,2.72
2023-01-09T21:00:11.889Z,3.33
2023-01-09T21:05:17.306Z,3.47
2023-01-09T21:10:21.020Z,3.50
2023-01-09T21:15:24.980Z,3.63
2023-01-09T21:20:29.860Z,4.10
2023-01-09T21:25:33.638Z,3.63
2023-01-09T21:30:37.311Z,3.22
2023-01-09T21:35:42.665Z,2.72
2023-01-09T21:40:49.870Z,3.00
2023-01-09T21:46:11.794Z,3.17
2023-01-09T21:51:16.866Z,2.28
2023-01-09T21:56:20.846Z,2.70
2023-01-09T22:01:24.576Z,2.55
2023-01-09T22:06:29.797Z,3.40
2023-01-09T22:11:33.619Z,3.30
2023-01-09T22:16:37.487Z,3.30
2023-01-09T22:21:42.579Z,3.65
2023-01-09T22:26:46.268Z,9.45
2023-01-09T22:31:49.814Z,4.75
2023-01-09T22:36:54.850Z,4.10
2023-01-09T22:41:59.262Z,3.90
2023-01-09T22:47:02.726Z,3.65
2023-01-09T22:52:07.645Z,3.55
2023-01-09T22:57:11.145Z,3.38
2023-01-09T23:02:14.751Z,3.47
2023-01-09T23:07:19.733Z,3.15
2023-01-09T23:12:23.447Z,3.35
2023-01-09T23:17:27.194Z,3.03
2023-01-09T23:22:31.997Z,3.03
2023-01-09T23:27:35.546Z,2.75
2023-01-09T23:32:39.102Z,2.63
2023-01-09T23:37:44.210Z,2.90
2023-01-09T23:43:05.259Z,2.72
2023-01-09T23:48:11.134Z,3.08
2023-01-09T23:53:16.086Z,2.95
2023-01-09T23:58:19.556Z,3.17
